sensor_id;sensor_type;location;lat;lon;timestamp;P1;durP1;ratioP1;P2;durP2;ratioP2
13897;SDS011;7019;50.766;4.474;2023-03-12T00:01:16;10.97;;;6.57;;
13897;SDS011;7019;50.766;4.474;2023-03-12T00:03:45;12.00;;;6.83;;
13897;SDS011;7019;50.766;4.474;2023-03-12T00:06:14;8.93;;;6.80;;
13897;SDS011;7019;50.766;4.474;2023-03-12T00:08:43;11.73;;;6.47;;
13897;SDS011;7019;50.766;4.474;2023-03-12T00:11:12;11.47;;;6.17;;
13897;SDS011;7019;50.766;4.474;2023-03-12T00:13:40;12.00;;;5.83;;
13897;SDS011;7019;50.766;4.474;2023-03-12T00:16:08;9.80;;;5.30;;
13897;SDS011;7019;50.766;4.474;2023-03-12T00:18:37;11.20;;;5.77;;
13897;SDS011;7019;50.766;4.474;2023-03-12T00:21:04;9.53;;;5.37;;
13897;SDS011;7019;50.766;4.474;2023-03-12T00:23:33;8.63;;;5.97;;
13897;SDS011;7019;50.766;4.474;2023-03-12T00:26:01;11.43;;;5.60;;
13897;SDS011;7019;50.766;4.474;2023-03-12T00:28:30;9.03;;;6.30;;
13897;SDS011;7019;50.766;4.474;2023-03-12T00:30:59;11.63;;;5.90;;
13897;SDS011;7019;50.766;4.474;2023-03-12T00:33:26;11.17;;;6.10;;
13897;SDS011;7019;50.766;4.474;2023-03-12T00:35:54;9.83;;;5.70;;
13897;SDS011;7019;50.766;4.474;2023-03-12T00:38:21;8.63;;;5.27;;
13897;SDS011;7019;50.766;4.474;2023-03-12T00:40:50;10.23;;;5.80;;
13897;SDS011;7019;50.766;4.474;2023-03-12T00:43:17;8.47;;;5.03;;
13897;SDS011;7019;50.766;4.474;2023-03-12T00:45:44;8.93;;;5.47;;
13897;SDS011;7019;50.766;4.474;2023-03-12T00:48:11;11.03;;;5.13;;
13897;SDS011;7019;50.766;4.474;2023-03-12T00:50:38;12.23;;;5.10;;
13897;SDS011;7019;50.766;4.474;2023-03-12T00:53:05;7.83;;;4.30;;
13897;SDS011;7019;50.766;4.474;2023-03-12T00:55:32;8.60;;;4.40;;
13897;SDS011;7019;50.766;4.474;2023-03-12T00:58:01;8.20;;;4.47;;
13897;SDS011;7019;50.766;4.474;2023-03-12T01:00:28;11.37;;;4.40;;
13897;SDS011;7019;50.766;4.474;2023-03-12T01:02:55;8.17;;;4.20;;
13897;SDS011;7019;50.766;4.474;2023-03-12T01:05:22;8.93;;;4.17;;
13897;SDS011;7019;50.766;4.474;2023-03-12T01:07:50;16.37;;;4.13;;
13897;SDS011;7019;50.766;4.474;2023-03-12T01:10:18;10.20;;;4.73;;
13897;SDS011;7019;50.766;4.474;2023-03-12T01:12:46;8.63;;;4.63;;
13897;SDS011;7019;50.766;4.474;2023-03-12T01:15:15;7.60;;;4.13;;
13897;SDS011;7019;50.766;4.474;2023-03-12T01:17:43;6.23;;;3.97;;
13897;SDS011;7019;50.766;4.474;2023-03-12T01:20:10;9.17;;;4.30;;
13897;SDS011;7019;50.766;4.474;2023-03-12T01:22:38;6.07;;;3.60;;
13897;SDS011;7019;50.766;4.474;2023-03-12T01:25:05;5.93;;;4.00;;
13897;SDS011;7019;50.766;4.474;2023-03-12T01:27:33;7.17;;;3.97;;
13897;SDS011;7019;50.766;4.474;2023-03-12T01:30:00;10.93;;;3.77;;
13897;SDS011;7019;50.766;4.474;2023-03-12T01:32:29;9.93;;;3.40;;
13897;SDS011;7019;50.766;4.474;2023-03-12T01:34:56;6.73;;;3.10;;
13897;SDS011;7019;50.766;4.474;2023-03-12T01:37:24;8.53;;;3.50;;
13897;SDS011;7019;50.766;4.474;2023-03-12T01:39:51;6.40;;;3.10;;
13897;SDS011;7019;50.766;4.474;2023-03-12T01:42:18;8.50;;;3.13;;
13897;SDS011;7019;50.766;4.474;2023-03-12T01:44:52;7.27;;;3.20;;
13897;SDS011;7019;50.766;4.474;2023-03-12T01:47:21;9.60;;;3.30;;
13897;SDS011;7019;50.766;4.474;2023-03-12T01:49:50;5.10;;;3.03;;
13897;SDS011;7019;50.766;4.474;2023-03-12T01:52:19;5.77;;;3.00;;
13897;SDS011;7019;50.766;4.474;2023-03-12T01:54:49;7.10;;;3.13;;
13897;SDS011;7019;50.766;4.474;2023-03-12T01:57:21;6.17;;;2.80;;
13897;SDS011;7019;50.766;4.474;2023-03-12T01:59:53;9.93;;;3.37;;
13897;SDS011;7019;50.766;4.474;2023-03-12T02:02:23;6.60;;;3.37;;
13897;SDS011;7019;50.766;4.474;2023-03-12T02:04:57;9.37;;;3.37;;
13897;SDS011;7019;50.766;4.474;2023-03-12T02:07:32;7.47;;;2.93;;
13897;SDS011;7019;50.766;4.474;2023-03-12T02:10:00;6.50;;;3.10;;
13897;SDS011;7019;50.766;4.474;2023-03-12T02:12:29;11.47;;;3.30;;
13897;SDS011;7019;50.766;4.474;2023-03-12T02:14:57;6.90;;;2.60;;
13897;SDS011;7019;50.766;4.474;2023-03-12T02:17:24;4.00;;;2.40;;
13897;SDS011;7019;50.766;4.474;2023-03-12T02:19:54;6.77;;;2.97;;
13897;SDS011;7019;50.766;4.474;2023-03-12T02:22:33;6.10;;;2.90;;
13897;SDS011;7019;50.766;4.474;2023-03-12T02:25:03;6.77;;;2.53;;
13897;SDS011;7019;50.766;4.474;2023-03-12T02:27:41;5.70;;;2.43;;
13897;SDS011;7019;50.766;4.474;2023-03-12T02:30:09;6.50;;;2.97;;
13897;SDS011;7019;50.766;4.474;2023-03-12T02:32:40;6.63;;;3.07;;
13897;SDS011;7019;50.766;4.474;2023-03-12T02:35:09;3.93;;;2.63;;
13897;SDS011;7019;50.766;4.474;2023-03-12T02:37:45;7.00;;;3.30;;
13897;SDS011;7019;50.766;4.474;2023-03-12T02:40:16;4.57;;;3.20;;
13897;SDS011;7019;50.766;4.474;2023-03-12T02:42:47;8.00;;;3.07;;
13897;SDS011;7019;50.766;4.474;2023-03-12T02:45:14;6.93;;;2.60;;
13897;SDS011;7019;50.766;4.474;2023-03-12T02:47:43;6.40;;;3.47;;
13897;SDS011;7019;50.766;4.474;2023-03-12T02:50:10;5.83;;;2.73;;
13897;SDS011;7019;50.766;4.474;2023-03-12T02:52:37;10.23;;;3.10;;
13897;SDS011;7019;50.766;4.474;2023-03-12T02:55:05;4.47;;;2.40;;
13897;SDS011;7019;50.766;4.474;2023-03-12T02:57:33;8.40;;;3.30;;
13897;SDS011;7019;50.766;4.474;2023-03-12T03:00:02;8.43;;;3.20;;
13897;SDS011;7019;50.766;4.474;2023-03-12T03:02:30;7.17;;;2.77;;
13897;SDS011;7019;50.766;4.474;2023-03-12T03:04:57;8.00;;;2.87;;
13897;SDS011;7019;50.766;4.474;2023-03-12T03:07:24;6.57;;;3.87;;
13897;SDS011;7019;50.766;4.474;2023-03-12T03:09:51;4.30;;;2.47;;
13897;SDS011;7019;50.766;4.474;2023-03-12T03:12:18;4.90;;;2.50;;
13897;SDS011;7019;50.766;4.474;2023-03-12T03:14:48;5.50;;;3.23;;
13897;SDS011;7019;50.766;4.474;2023-03-12T03:17:15;9.93;;;3.07;;
13897;SDS011;7019;50.766;4.474;2023-03-12T03:19:42;8.13;;;3.43;;
13897;SDS011;7019;50.766;4.474;2023-03-12T03:22:09;4.87;;;2.63;;
13897;SDS011;7019;50.766;4.474;2023-03-12T03:24:36;4.50;;;2.40;;
13897;SDS011;7019;50.766;4.474;2023-03-12T03:27:03;6.17;;;2.73;;
13897;SDS011;7019;50.766;4.474;2023-03-12T03:29:30;8.20;;;3.80;;
13897;SDS011;7019;50.766;4.474;2023-03-12T03:31:59;6.07;;;2.87;;
13897;SDS011;7019;50.766;4.474;2023-03-12T03:34:26;6.10;;;3.07;;
13897;SDS011;7019;50.766;4.474;2023-03-12T03:36:53;6.93;;;2.70;;
13897;SDS011;7019;50.766;4.474;2023-03-12T03:39:20;4.73;;;3.13;;
13897;SDS011;7019;50.766;4.474;2023-03-12T03:41:49;4.17;;;3.07;;
13897;SDS011;7019;50.766;4.474;2023-03-12T03:44:16;8.93;;;3.57;;
13897;SDS011;7019;50.766;4.474;2023-03-12T03:46:43;6.07;;;2.73;;
13897;SDS011;7019;50.766;4.474;2023-03-12T03:49:13;5.50;;;2.50;;
13897;SDS011;7019;50.766;4.474;2023-03-12T03:51:41;7.00;;;2.90;;
13897;SDS011;7019;50.766;4.474;2023-03-12T03:54:09;8.43;;;3.03;;
13897;SDS011;7019;50.766;4.474;2023-03-12T03:56:36;9.40;;;3.00;;
13897;SDS011;7019;50.766;4.474;2023-03-12T03:59:05;6.43;;;3.20;;
13897;SDS011;7019;50.766;4.474;2023-03-12T04:01:32;8.17;;;3.80;;
13897;SDS011;7019;50.766;4.474;2023-03-12T04:04:01;8.83;;;2.70;;
13897;SDS011;7019;50.766;4.474;2023-03-12T04:06:30;7.20;;;2.70;;
13897;SDS011;7019;50.766;4.474;2023-03-12T04:08:58;9.37;;;3.40;;
13897;SDS011;7019;50.766;4.474;2023-03-12T04:11:25;6.70;;;3.10;;
13897;SDS011;7019;50.766;4.474;2023-03-12T04:13:53;8.63;;;3.50;;
13897;SDS011;7019;50.766;4.474;2023-03-12T04:16:20;5.03;;;3.40;;
13897;SDS011;7019;50.766;4.474;2023-03-12T04:18:47;7.50;;;3.80;;
13897;SDS011;7019;50.766;4.474;2023-03-12T04:21:14;6.07;;;3.73;;
13897;SDS011;7019;50.766;4.474;2023-03-12T04:23:43;6.37;;;3.83;;
13897;SDS011;7019;50.766;4.474;2023-03-12T04:26:10;6.67;;;3.63;;
13897;SDS011;7019;50.766;4.474;2023-03-12T04:28:37;18.40;;;4.00;;
13897;SDS011;7019;50.766;4.474;2023-03-12T04:31:05;7.60;;;4.17;;
13897;SDS011;7019;50.766;4.474;2023-03-12T04:33:33;10.27;;;4.57;;
13897;SDS011;7019;50.766;4.474;2023-03-12T04:36:01;8.60;;;4.23;;
13897;SDS011;7019;50.766;4.474;2023-03-12T04:38:29;8.27;;;4.60;;
13897;SDS011;7019;50.766;4.474;2023-03-12T04:40:59;7.60;;;5.07;;
13897;SDS011;7019;50.766;4.474;2023-03-12T04:43:27;8.00;;;4.43;;
13897;SDS011;7019;50.766;4.474;2023-03-12T04:45:55;6.43;;;4.83;;
13897;SDS011;7019;50.766;4.474;2023-03-12T04:48:22;10.33;;;4.87;;
13897;SDS011;7019;50.766;4.474;2023-03-12T04:50:50;8.43;;;5.80;;
13897;SDS011;7019;50.766;4.474;2023-03-12T04:53:17;9.90;;;5.23;;
13897;SDS011;7019;50.766;4.474;2023-03-12T04:55:45;7.17;;;4.97;;
13897;SDS011;7019;50.766;4.474;2023-03-12T04:58:14;7.23;;;5.17;;
13897;SDS011;7019;50.766;4.474;2023-03-12T05:00:41;8.90;;;5.40;;
13897;SDS011;7019;50.766;4.474;2023-03-12T05:03:08;7.80;;;4.57;;
13897;SDS011;7019;50.766;4.474;2023-03-12T05:05:35;13.07;;;6.13;;
13897;SDS011;7019;50.766;4.474;2023-03-12T05:08:02;11.57;;;6.53;;
13897;SDS011;7019;50.766;4.474;2023-03-12T05:10:30;8.20;;;5.50;;
13897;SDS011;7019;50.766;4.474;2023-03-12T05:12:57;12.93;;;5.40;;
13897;SDS011;7019;50.766;4.474;2023-03-12T05:15:25;11.97;;;6.37;;
13897;SDS011;7019;50.766;4.474;2023-03-12T05:17:53;8.63;;;5.30;;
13897;SDS011;7019;50.766;4.474;2023-03-12T05:20:20;12.97;;;6.70;;
13897;SDS011;7019;50.766;4.474;2023-03-12T05:22:47;11.07;;;6.77;;
13897;SDS011;7019;50.766;4.474;2023-03-12T05:25:14;14.50;;;6.37;;
13897;SDS011;7019;50.766;4.474;2023-03-12T05:27:41;10.47;;;6.80;;
13897;SDS011;7019;50.766;4.474;2023-03-12T05:30:09;11.63;;;6.73;;
13897;SDS011;7019;50.766;4.474;2023-03-12T05:32:38;14.87;;;8.07;;
13897;SDS011;7019;50.766;4.474;2023-03-12T05:35:05;9.40;;;6.83;;
13897;SDS011;7019;50.766;4.474;2023-03-12T05:37:33;10.50;;;8.00;;
13897;SDS011;7019;50.766;4.474;2023-03-12T05:40:01;14.83;;;7.93;;
13897;SDS011;7019;50.766;4.474;2023-03-12T05:42:29;12.90;;;7.43;;
13897;SDS011;7019;50.766;4.474;2023-03-12T05:44:56;14.17;;;8.03;;
13897;SDS011;7019;50.766;4.474;2023-03-12T05:47:24;12.63;;;7.80;;
13897;SDS011;7019;50.766;4.474;2023-03-12T05:49:53;9.83;;;7.10;;
13897;SDS011;7019;50.766;4.474;2023-03-12T05:52:20;12.47;;;7.27;;
13897;SDS011;7019;50.766;4.474;2023-03-12T05:54:47;9.70;;;7.37;;
13897;SDS011;7019;50.766;4.474;2023-03-12T05:57:14;13.93;;;8.60;;
13897;SDS011;7019;50.766;4.474;2023-03-12T05:59:41;12.73;;;7.57;;
13897;SDS011;7019;50.766;4.474;2023-03-12T06:02:08;11.23;;;7.60;;
13897;SDS011;7019;50.766;4.474;2023-03-12T06:04:35;13.87;;;7.73;;
13897;SDS011;7019;50.766;4.474;2023-03-12T06:07:04;11.13;;;8.60;;
13897;SDS011;7019;50.766;4.474;2023-03-12T06:09:31;11.03;;;8.20;;
13897;SDS011;7019;50.766;4.474;2023-03-12T06:11:58;12.97;;;9.63;;
13897;SDS011;7019;50.766;4.474;2023-03-12T06:14:26;13.10;;;9.07;;
13897;SDS011;7019;50.766;4.474;2023-03-12T06:16:53;16.20;;;9.43;;
13897;SDS011;7019;50.766;4.474;2023-03-12T06:19:20;14.27;;;9.63;;
13897;SDS011;7019;50.766;4.474;2023-03-12T06:21:47;13.73;;;9.83;;
13897;SDS011;7019;50.766;4.474;2023-03-12T06:24:16;14.50;;;10.87;;
13897;SDS011;7019;50.766;4.474;2023-03-12T06:26:43;15.50;;;10.83;;
13897;SDS011;7019;50.766;4.474;2023-03-12T06:29:10;14.37;;;10.07;;
13897;SDS011;7019;50.766;4.474;2023-03-12T06:31:37;18.17;;;11.17;;
13897;SDS011;7019;50.766;4.474;2023-03-12T06:34:06;16.90;;;11.67;;
13897;SDS011;7019;50.766;4.474;2023-03-12T06:36:34;15.00;;;11.30;;
13897;SDS011;7019;50.766;4.474;2023-03-12T06:39:01;18.07;;;12.00;;
13897;SDS011;7019;50.766;4.474;2023-03-12T06:41:33;18.10;;;11.37;;
13897;SDS011;7019;50.766;4.474;2023-03-12T06:44:01;15.80;;;10.97;;
13897;SDS011;7019;50.766;4.474;2023-03-12T06:46:30;24.13;;;12.40;;
13897;SDS011;7019;50.766;4.474;2023-03-12T06:48:57;16.90;;;11.40;;
13897;SDS011;7019;50.766;4.474;2023-03-12T06:51:24;20.27;;;12.07;;
13897;SDS011;7019;50.766;4.474;2023-03-12T06:53:52;21.77;;;13.13;;
13897;SDS011;7019;50.766;4.474;2023-03-12T06:56:19;19.73;;;12.30;;
13897;SDS011;7019;50.766;4.474;2023-03-12T06:58:47;22.50;;;13.33;;
13897;SDS011;7019;50.766;4.474;2023-03-12T07:01:15;20.87;;;12.37;;
13897;SDS011;7019;50.766;4.474;2023-03-12T07:03:42;20.77;;;13.10;;
13897;SDS011;7019;50.766;4.474;2023-03-12T07:06:12;20.97;;;12.37;;
13897;SDS011;7019;50.766;4.474;2023-03-12T07:08:40;26.60;;;13.63;;
13897;SDS011;7019;50.766;4.474;2023-03-12T07:11:08;25.13;;;12.17;;
13897;SDS011;7019;50.766;4.474;2023-03-12T07:13:35;20.30;;;12.37;;
13897;SDS011;7019;50.766;4.474;2023-03-12T07:16:04;21.70;;;11.47;;
13897;SDS011;7019;50.766;4.474;2023-03-12T07:18:32;24.00;;;13.07;;
13897;SDS011;7019;50.766;4.474;2023-03-12T07:21:00;20.43;;;11.73;;
13897;SDS011;7019;50.766;4.474;2023-03-12T07:23:27;24.17;;;12.20;;
13897;SDS011;7019;50.766;4.474;2023-03-12T07:25:54;24.57;;;12.67;;
13897;SDS011;7019;50.766;4.474;2023-03-12T07:28:21;24.63;;;11.77;;
13897;SDS011;7019;50.766;4.474;2023-03-12T07:30:48;30.87;;;13.17;;
13897;SDS011;7019;50.766;4.474;2023-03-12T07:33:17;24.47;;;12.60;;
13897;SDS011;7019;50.766;4.474;2023-03-12T07:35:46;22.17;;;11.73;;
13897;SDS011;7019;50.766;4.474;2023-03-12T07:38:13;23.97;;;12.30;;
13897;SDS011;7019;50.766;4.474;2023-03-12T07:40:40;30.53;;;12.53;;
13897;SDS011;7019;50.766;4.474;2023-03-12T07:43:08;23.73;;;11.87;;
13897;SDS011;7019;50.766;4.474;2023-03-12T07:45:37;24.50;;;11.30;;
13897;SDS011;7019;50.766;4.474;2023-03-12T07:48:05;26.40;;;11.27;;
13897;SDS011;7019;50.766;4.474;2023-03-12T07:50:34;16.23;;;10.23;;
13897;SDS011;7019;50.766;4.474;2023-03-12T07:53:01;27.23;;;11.90;;
13897;SDS011;7019;50.766;4.474;2023-03-12T07:55:29;19.80;;;10.63;;
13897;SDS011;7019;50.766;4.474;2023-03-12T07:57:57;27.07;;;11.63;;
13897;SDS011;7019;50.766;4.474;2023-03-12T08:00:24;33.50;;;12.60;;
13897;SDS011;7019;50.766;4.474;2023-03-12T08:02:51;35.87;;;13.80;;
13897;SDS011;7019;50.766;4.474;2023-03-12T08:05:19;39.40;;;13.73;;
13897;SDS011;7019;50.766;4.474;2023-03-12T08:07:50;36.97;;;14.17;;
13897;SDS011;7019;50.766;4.474;2023-03-12T08:10:18;40.37;;;13.80;;
13897;SDS011;7019;50.766;4.474;2023-03-12T08:12:46;44.97;;;15.37;;
13897;SDS011;7019;50.766;4.474;2023-03-12T08:15:13;52.57;;;16.60;;
13897;SDS011;7019;50.766;4.474;2023-03-12T08:17:40;45.37;;;15.37;;
13897;SDS011;7019;50.766;4.474;2023-03-12T08:20:08;55.77;;;15.17;;
13897;SDS011;7019;50.766;4.474;2023-03-12T08:22:36;54.67;;;18.07;;
13897;SDS011;7019;50.766;4.474;2023-03-12T08:25:06;58.00;;;17.40;;
13897;SDS011;7019;50.766;4.474;2023-03-12T08:27:33;48.07;;;16.87;;
13897;SDS011;7019;50.766;4.474;2023-03-12T08:30:01;53.77;;;15.13;;
13897;SDS011;7019;50.766;4.474;2023-03-12T08:32:29;60.53;;;17.43;;
13897;SDS011;7019;50.766;4.474;2023-03-12T08:34:56;54.73;;;15.87;;
13897;SDS011;7019;50.766;4.474;2023-03-12T08:37:24;46.57;;;16.53;;
13897;SDS011;7019;50.766;4.474;2023-03-12T08:39:51;57.00;;;18.60;;
13897;SDS011;7019;50.766;4.474;2023-03-12T08:42:20;49.23;;;17.57;;
13897;SDS011;7019;50.766;4.474;2023-03-12T08:44:47;59.30;;;16.73;;
13897;SDS011;7019;50.766;4.474;2023-03-12T08:47:14;49.37;;;16.70;;
13897;SDS011;7019;50.766;4.474;2023-03-12T08:49:41;63.00;;;15.80;;
13897;SDS011;7019;50.766;4.474;2023-03-12T08:52:08;53.30;;;16.03;;
13897;SDS011;7019;50.766;4.474;2023-03-12T08:54:35;66.37;;;17.50;;
13897;SDS011;7019;50.766;4.474;2023-03-12T08:57:02;50.57;;;14.90;;
13897;SDS011;7019;50.766;4.474;2023-03-12T08:59:30;56.97;;;16.77;;
13897;SDS011;7019;50.766;4.474;2023-03-12T09:01:57;47.27;;;14.03;;
13897;SDS011;7019;50.766;4.474;2023-03-12T09:04:25;46.77;;;14.47;;
13897;SDS011;7019;50.766;4.474;2023-03-12T09:06:52;47.70;;;13.80;;
13897;SDS011;7019;50.766;4.474;2023-03-12T09:09:19;52.83;;;13.97;;
13897;SDS011;7019;50.766;4.474;2023-03-12T09:11:46;52.00;;;14.03;;
13897;SDS011;7019;50.766;4.474;2023-03-12T09:14:13;50.33;;;13.40;;
13897;SDS011;7019;50.766;4.474;2023-03-12T09:16:42;46.93;;;12.93;;
13897;SDS011;7019;50.766;4.474;2023-03-12T09:19:09;46.40;;;12.90;;
13897;SDS011;7019;50.766;4.474;2023-03-12T09:21:36;46.70;;;11.90;;
13897;SDS011;7019;50.766;4.474;2023-03-12T09:24:04;43.77;;;12.77;;
13897;SDS011;7019;50.766;4.474;2023-03-12T09:26:31;53.93;;;13.57;;
13897;SDS011;7019;50.766;4.474;2023-03-12T09:28:58;47.43;;;12.10;;
13897;SDS011;7019;50.766;4.474;2023-03-12T09:31:25;33.90;;;11.43;;
13897;SDS011;7019;50.766;4.474;2023-03-12T09:33:54;41.50;;;11.53;;
13897;SDS011;7019;50.766;4.474;2023-03-12T09:36:21;42.10;;;10.77;;
13897;SDS011;7019;50.766;4.474;2023-03-12T09:38:48;39.20;;;9.47;;
13897;SDS011;7019;50.766;4.474;2023-03-12T09:41:17;36.30;;;9.67;;
13897;SDS011;7019;50.766;4.474;2023-03-12T09:43:47;35.47;;;9.67;;
13897;SDS011;7019;50.766;4.474;2023-03-12T09:46:21;39.80;;;9.10;;
13897;SDS011;7019;50.766;4.474;2023-03-12T09:48:52;39.83;;;9.67;;
13897;SDS011;7019;50.766;4.474;2023-03-12T09:51:26;32.97;;;9.30;;
13897;SDS011;7019;50.766;4.474;2023-03-12T09:53:57;34.80;;;8.90;;
13897;SDS011;7019;50.766;4.474;2023-03-12T09:56:27;39.57;;;8.73;;
13897;SDS011;7019;50.766;4.474;2023-03-12T09:58:55;39.63;;;9.13;;
13897;SDS011;7019;50.766;4.474;2023-03-12T10:01:32;43.73;;;9.77;;
13897;SDS011;7019;50.766;4.474;2023-03-12T10:04:06;41.60;;;9.50;;
13897;SDS011;7019;50.766;4.474;2023-03-12T10:06:46;37.03;;;8.40;;
13897;SDS011;7019;50.766;4.474;2023-03-12T10:09:28;36.53;;;9.60;;
13897;SDS011;7019;50.766;4.474;2023-03-12T10:12:07;30.90;;;8.03;;
13897;SDS011;7019;50.766;4.474;2023-03-12T10:14:48;36.07;;;9.10;;
13897;SDS011;7019;50.766;4.474;2023-03-12T10:17:34;28.70;;;7.63;;
13897;SDS011;7019;50.766;4.474;2023-03-12T10:23:07;35.73;;;8.63;;
13897;SDS011;7019;50.766;4.474;2023-03-12T10:25:41;28.30;;;7.97;;
13897;SDS011;7019;50.766;4.474;2023-03-12T10:28:14;36.27;;;8.90;;
13897;SDS011;7019;50.766;4.474;2023-03-12T10:30:46;33.30;;;7.77;;
13897;SDS011;7019;50.766;4.474;2023-03-12T10:33:17;39.37;;;8.73;;
13897;SDS011;7019;50.766;4.474;2023-03-12T10:35:46;36.30;;;8.00;;
13897;SDS011;7019;50.766;4.474;2023-03-12T10:38:14;27.73;;;8.00;;
13897;SDS011;7019;50.766;4.474;2023-03-12T10:40:43;30.07;;;7.73;;
13897;SDS011;7019;50.766;4.474;2023-03-12T10:43:10;32.43;;;8.13;;
13897;SDS011;7019;50.766;4.474;2023-03-12T10:45:38;36.90;;;8.07;;
13897;SDS011;7019;50.766;4.474;2023-03-12T10:48:10;31.33;;;8.50;;
13897;SDS011;7019;50.766;4.474;2023-03-12T10:50:45;33.10;;;8.10;;
13897;SDS011;7019;50.766;4.474;2023-03-12T10:53:27;31.70;;;8.37;;
13897;SDS011;7019;50.766;4.474;2023-03-12T10:56:00;30.40;;;7.77;;
13897;SDS011;7019;50.766;4.474;2023-03-12T10:58:30;31.93;;;8.33;;
13897;SDS011;7019;50.766;4.474;2023-03-12T11:01:00;29.60;;;6.90;;
13897;SDS011;7019;50.766;4.474;2023-03-12T11:03:29;29.37;;;8.37;;
13897;SDS011;7019;50.766;4.474;2023-03-12T11:06:00;38.33;;;9.60;;
13897;SDS011;7019;50.766;4.474;2023-03-12T11:08:28;40.40;;;9.10;;
13897;SDS011;7019;50.766;4.474;2023-03-12T11:10:57;24.73;;;7.60;;
13897;SDS011;7019;50.766;4.474;2023-03-12T11:13:29;31.93;;;8.47;;
13897;SDS011;7019;50.766;4.474;2023-03-12T11:15:58;29.50;;;7.13;;
13897;SDS011;7019;50.766;4.474;2023-03-12T11:18:34;33.00;;;7.23;;
13897;SDS011;7019;50.766;4.474;2023-03-12T11:21:14;33.63;;;7.17;;
13897;SDS011;7019;50.766;4.474;2023-03-12T11:23:44;37.67;;;7.77;;
13897;SDS011;7019;50.766;4.474;2023-03-12T11:26:34;30.10;;;7.07;;
13897;SDS011;7019;50.766;4.474;2023-03-12T11:29:06;30.53;;;6.93;;
13897;SDS011;7019;50.766;4.474;2023-03-12T11:31:43;29.93;;;6.63;;
13897;SDS011;7019;50.766;4.474;2023-03-12T11:34:18;34.37;;;6.67;;
13897;SDS011;7019;50.766;4.474;2023-03-12T11:36:50;28.57;;;7.00;;
13897;SDS011;7019;50.766;4.474;2023-03-12T11:39:25;26.77;;;5.87;;
13897;SDS011;7019;50.766;4.474;2023-03-12T11:42:03;36.77;;;6.77;;
13897;SDS011;7019;50.766;4.474;2023-03-12T11:44:40;29.97;;;8.07;;
13897;SDS011;7019;50.766;4.474;2023-03-12T11:47:19;33.10;;;7.43;;
13897;SDS011;7019;50.766;4.474;2023-03-12T11:49:59;36.43;;;7.03;;
13897;SDS011;7019;50.766;4.474;2023-03-12T11:52:37;37.67;;;8.13;;
13897;SDS011;7019;50.766;4.474;2023-03-12T11:58:19;39.20;;;6.97;;
13897;SDS011;7019;50.766;4.474;2023-03-12T12:00:58;30.47;;;7.10;;
13897;SDS011;7019;50.766;4.474;2023-03-12T12:06:36;31.80;;;7.60;;
13897;SDS011;7019;50.766;4.474;2023-03-12T12:09:16;34.73;;;7.90;;
13897;SDS011;7019;50.766;4.474;2023-03-12T12:11:54;33.43;;;7.87;;
13897;SDS011;7019;50.766;4.474;2023-03-12T12:14:46;40.53;;;8.20;;
13897;SDS011;7019;50.766;4.474;2023-03-12T12:17:34;41.03;;;7.60;;
13897;SDS011;7019;50.766;4.474;2023-03-12T12:23:01;30.40;;;6.93;;
13897;SDS011;7019;50.766;4.474;2023-03-12T12:25:50;30.67;;;6.57;;
13897;SDS011;7019;50.766;4.474;2023-03-12T12:28:27;36.90;;;6.87;;
13897;SDS011;7019;50.766;4.474;2023-03-12T12:31:07;31.73;;;6.23;;
13897;SDS011;7019;50.766;4.474;2023-03-12T12:33:52;25.83;;;6.33;;
13897;SDS011;7019;50.766;4.474;2023-03-12T12:36:29;27.47;;;6.50;;
13897;SDS011;7019;50.766;4.474;2023-03-12T12:38:59;28.53;;;6.57;;
13897;SDS011;7019;50.766;4.474;2023-03-12T12:41:33;26.97;;;6.30;;
13897;SDS011;7019;50.766;4.474;2023-03-12T12:44:03;26.90;;;6.60;;
13897;SDS011;7019;50.766;4.474;2023-03-12T12:46:36;23.07;;;6.23;;
13897;SDS011;7019;50.766;4.474;2023-03-12T12:49:08;23.57;;;5.10;;
13897;SDS011;7019;50.766;4.474;2023-03-12T12:51:39;30.63;;;6.40;;
13897;SDS011;7019;50.766;4.474;2023-03-12T12:54:13;26.23;;;6.13;;
13897;SDS011;7019;50.766;4.474;2023-03-12T12:56:52;22.97;;;7.37;;
13897;SDS011;7019;50.766;4.474;2023-03-12T12:59:29;24.40;;;5.43;;
13897;SDS011;7019;50.766;4.474;2023-03-12T13:02:00;24.93;;;5.83;;
13897;SDS011;7019;50.766;4.474;2023-03-12T13:04:29;23.83;;;5.20;;
13897;SDS011;7019;50.766;4.474;2023-03-12T13:07:02;27.17;;;5.43;;
13897;SDS011;7019;50.766;4.474;2023-03-12T13:09:51;25.63;;;5.40;;
13897;SDS011;7019;50.766;4.474;2023-03-12T13:12:24;26.60;;;5.77;;
13897;SDS011;7019;50.766;4.474;2023-03-12T13:14:55;28.33;;;5.43;;
13897;SDS011;7019;50.766;4.474;2023-03-12T13:17:27;25.37;;;4.93;;
13897;SDS011;7019;50.766;4.474;2023-03-12T13:20:04;21.37;;;5.47;;
13897;SDS011;7019;50.766;4.474;2023-03-12T13:25:38;29.53;;;4.80;;
13897;SDS011;7019;50.766;4.474;2023-03-12T13:28:25;20.83;;;5.13;;
13897;SDS011;7019;50.766;4.474;2023-03-12T13:30:59;30.70;;;7.40;;
13897;SDS011;7019;50.766;4.474;2023-03-12T13:33:38;21.57;;;4.87;;
13897;SDS011;7019;50.766;4.474;2023-03-12T13:38:55;23.13;;;5.40;;
13897;SDS011;7019;50.766;4.474;2023-03-12T13:41:31;21.40;;;5.07;;
13897;SDS011;7019;50.766;4.474;2023-03-12T13:44:01;24.53;;;5.43;;
13897;SDS011;7019;50.766;4.474;2023-03-12T13:46:57;29.70;;;6.70;;
13897;SDS011;7019;50.766;4.474;2023-03-12T13:49:26;27.97;;;5.10;;
13897;SDS011;7019;50.766;4.474;2023-03-12T13:52:02;27.07;;;6.37;;
13897;SDS011;7019;50.766;4.474;2023-03-12T13:54:44;21.10;;;5.67;;
13897;SDS011;7019;50.766;4.474;2023-03-12T13:57:22;23.57;;;6.03;;
13897;SDS011;7019;50.766;4.474;2023-03-12T13:59:56;21.97;;;5.40;;
13897;SDS011;7019;50.766;4.474;2023-03-12T14:02:24;21.60;;;5.57;;
13897;SDS011;7019;50.766;4.474;2023-03-12T14:05:00;31.30;;;5.67;;
13897;SDS011;7019;50.766;4.474;2023-03-12T14:10:24;29.60;;;6.87;;
13897;SDS011;7019;50.766;4.474;2023-03-12T14:13:02;25.00;;;5.37;;
13897;SDS011;7019;50.766;4.474;2023-03-12T14:15:43;29.37;;;5.77;;
13897;SDS011;7019;50.766;4.474;2023-03-12T14:18:17;28.67;;;6.37;;
13897;SDS011;7019;50.766;4.474;2023-03-12T14:20:49;23.37;;;5.77;;
13897;SDS011;7019;50.766;4.474;2023-03-12T14:23:20;18.53;;;5.27;;
13897;SDS011;7019;50.766;4.474;2023-03-12T14:25:49;26.20;;;6.33;;
13897;SDS011;7019;50.766;4.474;2023-03-12T14:28:22;23.53;;;5.50;;
13897;SDS011;7019;50.766;4.474;2023-03-12T14:30:54;15.03;;;4.10;;
13897;SDS011;7019;50.766;4.474;2023-03-12T14:33:25;20.77;;;4.80;;
13897;SDS011;7019;50.766;4.474;2023-03-12T14:36:00;21.80;;;5.20;;
13897;SDS011;7019;50.766;4.474;2023-03-12T14:38:32;21.93;;;4.30;;
13897;SDS011;7019;50.766;4.474;2023-03-12T14:41:04;18.90;;;5.13;;
13897;SDS011;7019;50.766;4.474;2023-03-12T14:43:37;19.30;;;4.10;;
13897;SDS011;7019;50.766;4.474;2023-03-12T14:46:13;20.90;;;5.13;;
13897;SDS011;7019;50.766;4.474;2023-03-12T14:48:41;21.20;;;4.93;;
13897;SDS011;7019;50.766;4.474;2023-03-12T14:51:15;17.90;;;4.67;;
13897;SDS011;7019;50.766;4.474;2023-03-12T14:53:46;22.80;;;4.40;;
13897;SDS011;7019;50.766;4.474;2023-03-12T14:56:15;17.63;;;4.00;;
13897;SDS011;7019;50.766;4.474;2023-03-12T14:58:49;24.83;;;5.10;;
13897;SDS011;7019;50.766;4.474;2023-03-12T15:01:19;19.00;;;4.33;;
13897;SDS011;7019;50.766;4.474;2023-03-12T15:03:48;18.73;;;3.90;;
13897;SDS011;7019;50.766;4.474;2023-03-12T15:06:20;19.93;;;4.20;;
13897;SDS011;7019;50.766;4.474;2023-03-12T15:08:53;25.60;;;4.87;;
13897;SDS011;7019;50.766;4.474;2023-03-12T15:11:21;17.73;;;4.37;;
13897;SDS011;7019;50.766;4.474;2023-03-12T15:13:50;26.90;;;4.40;;
13897;SDS011;7019;50.766;4.474;2023-03-12T15:16:20;21.27;;;4.77;;
13897;SDS011;7019;50.766;4.474;2023-03-12T15:18:48;20.07;;;4.90;;
13897;SDS011;7019;50.766;4.474;2023-03-12T15:21:17;20.87;;;4.03;;
13897;SDS011;7019;50.766;4.474;2023-03-12T15:23:45;16.80;;;5.10;;
13897;SDS011;7019;50.766;4.474;2023-03-12T15:26:14;16.40;;;5.03;;